Terminal Aerodrome Forecast
Issued by NWS

Home | Current Version | Previous Version | Text Only | Print | Product List | Glossary Off
Versions: 1 2 3 4 5 6 7 8 9 10 11 12 13 14 15 16 17 18 19 20 21 22 23 24 25 26 27 28 29 30

000
FTUS43 KLOT 271133
TAFORD
TAF
KORD 271133Z 2712/2818 23003KT P6SM SCT250
     FM271900 11006KT P6SM FEW050 SCT200
     FM280200 07003KT P6SM BKN200
     FM281500 06007KT P6SM SHRA SCT030 BKN100 PROB30 2815/2818 4SM
      TSRA BKN030CB=

USA.gov is the U.S. government's official web portal to all federal, state and local government web resources and services.